Latest Weather Observations for Georgetown Airport

IDQ60801

Issued at 4:35 pm EST Thursday 23 October 2014 (issued every 30 minutes, with the page automatically refreshed every 10 minutes)

About weather observations | Map of weather stations | Latest weather observations for QLD | Other Formats
Station Details ID: 030124 Name: GEORGETOWN AIRPORT Lat: -18.30 Lon: 143.53 Height: 301.77 m
Data from the previous 72 hours. | See also: Recent months at Georgetown Airport
Date/Time
EST
Temp
°C
App
Temp
°C
Dew
Point
Rel
Hum
%
Delta-T
°C
Wind Press
QNH
hPa
Press
MSL
hPa
Rain
since 9 am
mm
Dir
 
Spd
km/h
Gust
km/h
Spd
kts
Gust
kts
23/04:30pm 32.7 27.7 4.5 17 15.0 SE 20 32 11 17 1013.0 - 0.0
23/04:00pm 32.8 27.2 3.7 16 15.3 ESE 22 33 12 18 1013.1 - 0.0
23/03:30pm 32.5 27.4 4.3 17 14.9 E 20 35 11 19 1013.1 - 0.0
23/03:00pm 32.5 26.8 5.1 18 14.7 E 24 41 13 22 1013.4 1011.4 0.0
23/02:30pm 32.0 26.8 5.5 19 14.2 ESE 22 37 12 20 1013.8 - 0.0
23/02:00pm 32.2 26.8 6.4 20 14.1 E 24 41 13 22 1014.1 - 0.0
23/01:30pm 31.8 26.5 6.8 21 13.7 ESE 24 41 13 22 1015.0 - 0.0
23/01:00pm 31.8 25.9 7.5 22 13.5 E 28 37 15 20 1015.6 - 0.0
23/12:30pm 31.5 27.6 8.5 24 12.9 ESE 19 32 10 17 1016.3 - 0.0
23/12:00pm 29.7 24.6 7.6 25 12.1 E 24 39 13 21 1016.9 1014.9 0.0
23/11:30am 29.2 24.8 8.8 28 11.4 ESE 22 37 12 20 1017.5 - 0.0
23/11:00am 28.8 24.5 9.5 30 10.9 SE 22 41 12 22 1018.1 - 0.0
23/10:30am 27.8 22.6 10.1 33 10.0 ESE 28 46 15 25 1018.4 - 0.0
23/10:28am 28.3 23.2 10.5 33 10.2 ESE 28 46 15 25 1018.5 - 0.0
23/10:00am 27.6 23.0 11.2 36 9.5 E 26 37 14 20 1018.8 - 0.0
23/09:30am 26.8 22.8 11.7 39 8.8 E 24 33 13 18 1019.1 - 0.0
23/09:00am 25.8 22.2 11.9 42 8.0 E 22 33 12 18 1019.2 1017.2 0.0
23/08:30am 24.8 21.9 13.0 47 6.9 E 20 28 11 15 1019.3 - 0.0
23/08:00am 23.6 21.3 12.9 51 6.2 ESE 17 26 9 14 1019.2 - 0.0
23/07:30am 22.2 19.9 13.0 56 5.3 ESE 17 26 9 14 1018.8 - 0.0
23/07:00am 21.2 19.3 13.1 60 4.7 ESE 15 24 8 13 1018.6 - 0.0
23/06:30am 20.4 18.5 12.9 62 4.3 ESE 15 22 8 12 1018.3 - 0.0
23/06:00am 19.6 18.3 12.6 64 4.0 ESE 11 19 6 10 1018.0 1016.0 0.0
23/05:30am 18.9 18.8 12.2 65 3.8 SSE 4 9 2 5 1017.7 - 0.0
23/05:00am 19.3 18.0 12.6 65 3.8 SSE 11 13 6 7 1017.5 - 0.0
23/04:30am 18.8 18.1 11.9 64 3.9 SSE 7 11 4 6 1017.4 - 0.0
23/04:00am 19.8 18.3 11.8 60 4.5 ESE 11 19 6 10 1017.3 - 0.0
23/03:30am 20.1 18.3 12.1 60 4.5 E 13 20 7 11 1017.2 - 0.0
23/03:00am 20.5 18.1 12.5 60 4.6 E 17 28 9 15 1017.2 1015.3 0.0
23/02:30am 20.4 18.4 12.6 61 4.5 E 15 24 8 13 1017.5 - 0.0
23/02:00am 20.5 18.5 12.7 61 4.5 E 15 20 8 11 1017.8 - 0.0
23/01:30am 20.9 18.0 12.8 60 4.7 E 20 32 11 17 1018.1 - 0.0
23/01:00am 21.2 18.4 12.6 58 4.9 E 19 32 10 17 1018.6 - 0.0
23/12:30am 21.6 19.1 12.2 55 5.4 E 17 28 9 15 1018.9 - 0.0
23/12:00am 22.0 18.9 11.7 52 5.8 E 19 26 10 14 1019.0 1017.0 0.0
 
Date/Time
EST
Temp
°C
App
Temp
°C
Dew
Point
Rel
Hum
%
Delta-T
°C
Wind Press
QNH
hPa
Press
MSL
hPa
Rain
since 9 am
mm
Dir
 
Spd
km/h
Gust
km/h
Spd
kts
Gust
kts
22/11:30pm 22.4 19.0 10.5 47 6.6 E 19 30 10 16 1019.2 - 0.0
22/11:00pm 22.9 19.2 10.0 44 7.1 E 20 28 11 15 1019.3 - 0.0
22/10:30pm 23.2 19.4 9.9 43 7.4 E 20 28 11 15 1019.2 - 0.0
22/10:00pm 23.8 19.6 11.2 45 7.1 E 24 35 13 19 1018.8 - 0.0
22/09:30pm 24.2 20.7 13.4 51 6.4 E 24 37 13 20 1018.5 - 0.0
22/09:10pm 24.7 20.4 13.3 49 6.7 E 28 46 15 25 1018.1 - 0.0
22/09:00pm 25.1 21.6 13.3 48 7.0 E 24 43 13 23 1018.0 1016.0 0.0
22/08:30pm 26.0 22.5 13.5 46 7.4 E 24 39 13 21 1017.4 - 0.0
22/08:00pm 26.7 24.0 13.4 43 7.9 E 20 32 11 17 1017.0 - 0.0
22/07:30pm 27.4 23.5 13.4 42 8.4 E 26 39 14 21 1016.6 - 0.0
22/07:00pm 28.5 24.6 12.0 36 9.7 E 24 39 13 21 1016.2 - 0.0
22/06:30pm 29.4 26.0 10.5 31 10.9 ESE 19 37 10 20 1015.7 - 0.0
22/06:00pm 30.3 26.1 9.8 28 11.7 ESE 22 33 12 18 1015.3 1013.3 0.0
22/05:30pm 30.9 26.7 9.7 27 12.1 E 22 35 12 19 1014.9 - 0.0
22/05:00pm 31.3 27.6 9.5 26 12.5 ESE 19 32 10 17 1014.6 - 0.0
22/04:30pm 32.0 27.7 9.5 25 12.9 E 22 33 12 18 1014.3 - 0.0
22/04:00pm 31.3 27.3 8.9 25 12.7 SE 20 33 11 18 1014.6 - 0.0
22/03:30pm 31.4 28.3 10.2 27 12.3 ESE 17 32 9 17 1014.8 - 0.0
22/03:00pm 31.3 27.5 11.1 29 11.8 ESE 22 35 12 19 1015.1 1013.1 0.0
22/02:30pm 31.9 28.3 11.7 29 12.0 E 22 33 12 18 1015.5 - 0.0
22/02:00pm 30.9 27.7 11.8 31 11.3 ESE 20 30 11 16 1015.9 - 0.0
22/01:30pm 30.4 26.8 11.9 32 10.9 E 22 33 12 18 1016.4 - 0.0
22/01:00pm 29.8 26.9 12.3 34 10.4 ESE 19 32 10 17 1017.0 - 0.0
22/12:30pm 29.4 25.6 12.3 34 10.1 E 24 44 13 24 1017.5 - 0.0
22/12:00pm 28.4 24.9 12.3 37 9.5 E 22 37 12 20 1017.8 1015.9 0.0
22/11:30am 29.4 26.5 12.8 36 9.9 E 20 35 11 19 1018.4 - 0.0
22/11:00am 28.2 24.9 12.9 38 9.1 ESE 22 35 12 19 1018.8 - 0.0
22/10:30am 27.1 23.0 12.7 41 8.5 E 26 39 14 21 1019.4 - 0.0
22/10:00am 26.0 21.5 12.5 43 7.9 E 28 43 15 23 1019.7 - 0.0
22/09:30am 25.7 21.7 11.8 42 8.0 E 24 43 13 23 1019.7 - 0.0
22/09:00am 25.3 21.9 12.5 45 7.5 E 22 35 12 19 1019.7 1017.7 0.0
22/08:30am 24.4 20.7 12.7 48 6.8 ENE 24 33 13 18 1019.6 - 0.0
22/08:00am 23.4 20.9 13.6 54 5.8 E 19 26 10 14 1019.5 - 0.0
22/07:30am 22.3 19.1 13.1 56 5.4 E 22 30 12 16 1019.2 - 0.0
22/07:00am 21.0 19.7 13.7 63 4.3 ESE 13 17 7 9 1018.9 - 0.0
22/06:30am 19.4 19.0 14.0 71 3.2 ESE 9 13 5 7 1018.8 - 0.0
22/06:00am 17.6 16.9 12.1 70 3.1 ESE 7 7 4 4 1018.7 1016.7 0.0
22/05:30am 18.2 17.7 12.6 70 3.2 ESE 7 9 4 5 1018.6 - 0.0
22/05:00am 18.3 17.8 12.5 69 3.3 ESE 7 9 4 5 1018.2 - 0.0
22/04:30am 18.4 17.4 12.4 68 3.4 ESE 9 11 5 6 1018.3 - 0.0
22/04:00am 19.3 18.4 12.6 65 3.8 E 9 13 5 7 1018.1 - 0.0
22/03:30am 20.0 17.6 12.7 63 4.2 E 17 20 9 11 1018.2 - 0.0
22/03:00am 20.1 17.7 12.8 63 4.2 E 17 24 9 13 1018.0 1016.0 0.0
22/02:30am 20.7 17.4 12.9 61 4.5 E 22 32 12 17 1017.7 - 0.0
22/02:04am 21.0 16.5 12.7 59 4.8 E 28 46 15 25 1017.8 - 0.0
22/02:00am 21.1 16.3 12.8 59 4.8 E 30 46 16 25 1017.8 - 0.0
22/01:55am 21.3 16.8 12.7 58 4.9 E 28 46 15 25 1017.8 - 0.0
22/01:30am 21.5 16.1 12.1 55 5.4 E 32 44 17 24 1018.1 - 0.0
22/01:00am 21.8 16.6 11.5 52 5.8 E 30 43 16 23 1018.2 - 0.0
22/12:30am 22.3 16.5 10.8 48 6.4 E 32 50 17 27 1018.5 - 0.0
22/12:20am 22.4 17.4 10.9 48 6.4 E 28 48 15 26 1018.7 - 0.0
22/12:00am 22.7 20.3 10.2 45 6.9 - 13 43 7 23 1019.0 1017.0 0.0
 
Date/Time
EST
Temp
°C
App
Temp
°C
Dew
Point
Rel
Hum
%
Delta-T
°C
Wind Press
QNH
hPa
Press
MSL
hPa
Rain
since 9 am
mm
Dir
 
Spd
km/h
Gust
km/h
Spd
kts
Gust
kts
21/11:44pm 22.9 17.5 11.0 47 6.7 E 30 50 16 27 1018.9 - 0.0
21/11:30pm 23.0 18.9 11.4 48 6.6 E 24 43 13 23 1019.1 - 0.0
21/11:02pm 23.5 19.0 12.5 50 6.4 E 28 50 15 27 1019.3 - 0.0
21/11:00pm 23.5 19.3 12.5 50 6.4 E 26 50 14 27 1019.4 - 0.0
21/10:30pm 24.1 19.7 13.0 50 6.5 E 28 44 15 24 1019.3 - 0.0
21/10:00pm 25.2 20.5 12.1 44 7.6 E 28 41 15 22 1019.0 - 0.0
21/09:30pm 26.0 22.2 11.0 39 8.6 E 22 32 12 17 1018.6 - 0.0
21/09:00pm 26.6 22.4 9.9 35 9.4 ENE 22 35 12 19 1018.1 1016.1 0.0
21/08:30pm 27.8 23.8 9.1 31 10.4 E 20 37 11 20 1017.6 - 0.0
21/08:00pm 28.4 24.9 8.7 29 11.0 E 17 24 9 13 1017.2 - 0.0
21/07:30pm 29.2 25.0 8.3 27 11.6 ESE 20 30 11 16 1016.8 - 0.0
21/07:00pm 29.6 26.6 7.5 25 12.1 E 13 19 7 10 1016.2 - 0.0
21/06:30pm 30.4 26.5 7.0 23 12.8 E 17 26 9 14 1015.8 - 0.0
21/06:00pm 31.4 26.8 6.5 21 13.6 E 20 28 11 15 1015.4 1013.4 0.0
21/05:30pm 32.0 27.5 6.2 20 14.0 E 19 30 10 16 1015.1 - 0.0
21/05:00pm 32.5 27.7 7.4 21 14.0 E 22 32 12 17 1014.8 - 0.0
21/04:30pm 31.8 28.4 7.5 22 13.5 NE 15 39 8 21 1014.6 - 0.0
21/04:00pm 32.6 28.2 7.4 21 14.0 E 20 32 11 17 1014.6 - 0.0
21/03:30pm 32.9 28.8 7.7 21 14.1 E 19 30 10 16 1015.0 - 0.0
21/03:00pm 32.1 29.3 8.4 23 13.4 ENE 13 30 7 16 1015.2 1013.2 0.0
21/02:30pm 31.7 28.3 9.3 25 12.8 E 17 28 9 15 1015.5 - 0.0
21/02:00pm 31.5 26.8 10.8 28 12.1 ENE 26 37 14 20 1015.8 - 0.0
21/01:30pm 31.8 28.0 11.0 28 12.2 E 22 35 12 19 1016.3 - 0.0
21/01:00pm 31.6 29.1 10.9 28 12.1 E 15 44 8 24 1016.8 - 0.0
21/12:30pm 29.9 26.9 10.5 30 11.2 ESE 17 32 9 17 1017.6 - 0.0
21/12:00pm 30.5 27.5 10.5 29 11.6 SE 17 30 9 16 1018.2 1016.2 0.0
21/11:30am 28.9 25.3 10.6 32 10.5 ENE 20 37 11 20 1018.7 - 0.0
21/11:00am 28.3 24.9 10.5 33 10.2 E 19 32 10 17 1019.1 - 0.0
21/10:30am 27.8 23.7 11.4 36 9.5 E 24 39 13 21 1019.5 - 0.0
21/10:00am 27.3 24.0 11.7 37 9.1 E 20 33 11 18 1019.8 - 0.0
21/09:30am 26.2 22.6 11.9 41 8.3 E 22 33 12 18 1020.0 - 0.0
21/09:00am 25.4 22.9 12.3 44 7.6 E 17 28 9 15 1020.2 1018.3 0.0
21/08:30am 23.7 19.8 12.0 48 6.7 E 24 37 13 20 1020.3 - 0.0
21/08:00am 22.9 20.4 13.4 55 5.6 E 19 32 10 17 1020.3 - 0.0
21/07:30am 22.0 20.3 13.6 59 4.9 ESE 15 22 8 12 1020.0 - 0.0
21/07:00am 20.8 19.6 14.0 65 4.0 ESE 13 20 7 11 1019.7 - 0.0
21/06:30am 19.4 19.2 13.6 69 3.4 ESE 7 11 4 6 1019.5 - 0.0
21/06:00am 18.8 18.2 13.4 71 3.1 E 9 15 5 8 1018.9 1016.9 0.0
21/05:30am 18.9 18.5 13.1 69 3.3 E 7 11 4 6 1018.7 - 0.0
21/05:00am 19.3 18.4 12.6 65 3.8 ESE 9 15 5 8 1018.4 - 0.0
21/04:30am 19.6 17.4 12.1 62 4.2 ESE 15 22 8 12 1018.3 - 0.0
21/04:00am 20.2 17.9 11.9 59 4.7 ESE 15 24 8 13 1018.3 - 0.0
21/03:30am 20.6 18.1 12.3 59 4.7 E 17 22 9 12 1018.0 - 0.0
21/03:00am 20.7 17.7 12.1 58 4.9 E 19 28 10 15 1017.8 1015.9 0.0
21/02:30am 20.8 19.7 12.0 57 5.0 E 9 20 5 11 1018.0 - 0.0
21/02:00am 21.1 18.6 12.3 57 5.0 E 17 24 9 13 1018.0 - 0.0
21/01:30am 21.5 18.7 12.6 57 5.1 E 19 28 10 15 1018.3 - 0.0
21/01:00am 21.8 19.0 12.6 56 5.3 E 19 26 10 14 1018.7 - 0.0
21/12:30am 22.1 20.1 12.6 55 5.5 E 15 22 8 12 1019.1 - 0.0
21/12:00am 22.6 19.9 12.8 54 5.7 ENE 19 24 10 13 1019.3 1017.3 0.0
 
Date/Time
EST
Temp
°C
App
Temp
°C
Dew
Point
Rel
Hum
%
Delta-T
°C
Wind Press
QNH
hPa
Press
MSL
hPa
Rain
since 9 am
mm
Dir
 
Spd
km/h
Gust
km/h
Spd
kts
Gust
kts
20/11:30pm 23.0 19.5 13.5 55 5.6 ENE 24 35 13 19 1019.3 - 0.0
20/11:00pm 23.5 19.4 13.7 54 5.8 E 28 43 15 23 1019.1 - 0.0
20/10:30pm 24.4 19.8 13.6 51 6.4 E 30 46 16 25 1018.9 - 0.0
20/10:18pm 24.8 20.6 13.4 49 6.7 E 28 46 15 25 1018.6 - 0.0
20/10:00pm 25.3 20.5 12.9 46 7.3 E 30 39 16 21 1018.4 - 0.0
20/09:48pm 25.9 21.3 12.4 43 7.9 E 28 48 15 26 1018.1 - 0.0
20/09:30pm 26.4 21.9 11.3 39 8.7 ENE 26 39 14 21 1017.7 - 0.0
20/09:00pm 27.3 23.0 7.2 28 10.8 ENE 19 28 10 15 1017.2 1015.3 0.0
20/08:30pm 27.8 24.4 6.0 25 11.5 E 13 20 7 11 1016.7 - 0.0
20/08:00pm 28.5 24.9 6.6 25 11.8 E 15 24 8 13 1016.3 - 0.0
20/07:30pm 29.0 25.6 7.6 26 11.7 ESE 15 22 8 12 1016.0 - 0.0
20/07:00pm 29.2 26.6 7.7 26 11.8 E 11 19 6 10 1015.7 - 0.0
20/06:30pm 30.0 26.6 7.8 25 12.3 E 15 28 8 15 1015.3 - 0.0
20/06:00pm 31.0 27.7 8.1 24 12.8 E 15 22 8 12 1014.9 1012.9 0.0
20/05:30pm 31.6 27.5 7.9 23 13.2 E 19 30 10 16 1014.5 - 0.0
20/05:00pm 32.0 28.2 8.9 24 13.1 E 19 30 10 16 1014.2 - 0.0

Other Formats:

Comma delimited format used in spreadsheet applications
http://www.bom.gov.au/fwo/IDQ60801/IDQ60801.94274.axf

JavaScript Object Notation format (JSON) in row-major order
http://www.bom.gov.au/fwo/IDQ60801/IDQ60801.94274.json